Waskish, MN

8:10 AM CDT on July 11, 2014 (GMT -0500)
Waskish Municipal (KVWU) Elev 1181 ft | 48.15 °N, 94.52 °W | Change Station

Current weather conditions updated 29 minutes ago

Overcast
Overcast
68 °F
Feels Like 68 °F
N
2
Wind Variable Wind from South

Today is forecast to be Warmer than yesterday. Thunderstorms early.

Today
High -- | Low -- °F
--% Chance of Precip.
Yesterday
High -- | Low -- °F
Precip. -- in
5:29 AM 9:16 PM
Waxing Gibbous, 99% visible
Pressure 29.85 in
Visibility 10.0 miles
Clouds Scattered Clouds 3000 ft
Overcast 3600 ft
Dew Point 66 °F
Humidity 94%
Rainfall 0.00 in
Snow Depth Not available.
UV 0 out of 12
Pollen 3.50 out of 12
Air Quality Not available.
Flu Activity Sporadic
METAR KVWU 111241Z AUTO 17002KT 10SM SCT030 OVC036 20/19 A2985 RMK AO2

More Conditions Fewer Conditions

Pressure 29.85 in
Visibility 10.0 miles
Clouds Scattered Clouds 3000 ft
Overcast 3600 ft
Dew Point 66 °F
Humidity 94%
Rainfall 0.00 in
Snow Depth Not available.
UV 0 out of 12
Pollen 3.50 out of 12
Air Quality Not available.
Flu Activity Sporadic
METAR KVWU 111241Z AUTO 17002KT 10SM SCT030 OVC036 20/19 A2985 RMK AO2

More Conditions Fewer Conditions

10-Day Weather Forecast

Almanac

Astronomy

Jul. 11, 2014 Rise Set
Actual Time 5:29 AM CDT 9:16 PM CDT
Civil Twilight 4:49 AM CDT 9:56 PM CDT
Nautical Twilight 3:54 AM CDT 10:51 PM CDT
Astronomical Twilight 2:32 AM CDT 12:11 AM CDT
Moon 8:21 PM CDT 4:47 AM CDT
Length of Visible Light 17h 07m
Length of Day
15h 47m
Tomorrow will be 1m 40s shorter.
Waxing Gibbous, 99% of the Moon is Illuminated
Today
Waxing Gibbous
Jul 12
Full
Jul 18
Last Quarter
Jul 26
New
Aug 3
First Quarter

Today's Extremes

State Highs State Lows

Community

WunderPhotos

Upload Photos

1,732,448 photos uploaded!

Nearby

Snow Depth

Station Depth Elevation
No new snow has been reported.

Earthquake Activity

City Distance Mag. Time & Date
No recent earthquake activity has been reported nearby.
Minimum magnitude displayed is 2.5.

Coastal Water Temperatures

Place Temperature
No Stations Reporting

Nearby Weather Stations

Station Location Temp. Dew Point Humidity Wind Precip. Elev Updated Type
RAWS KELLIHER MN, Kelliher, MN 68 °F 66 °F 92% SSW  at  5 mph 0.00 in / hr 1352 ft 7:07 AM CDT MADIS
Northome, MN 67.5 °F 65 °F 90% SSE  at  5.0 mph 0.00 in / hr 1440 ft 8:06 AM CDT Normal

Show More Stations Show Fewer Stations